Time,TemperatureF,DewpointF,PressureIn,WindDirection,WindDirectionDegrees,WindSpeedMPH,WindSpeedGustMPH,Humidity,HourlyPrecipIn,Conditions,Clouds,dailyrainin,SoftwareType,DateUTC
2013-12-15 00:12:00,34.5,34.0,29.73,NNE,23,15.0,30.0,97,0.01,,,0.00,weatherlink.com 1.10,2013-12-15 05:12:00,
2013-12-15 00:27:00,35.8,35.0,29.72,NNE,29,14.0,32.0,97,0.01,,,0.00,weatherlink.com 1.10,2013-12-15 05:27:00,
2013-12-15 00:42:00,35.4,35.0,29.69,NE,56,19.0,29.0,97,0.01,,,0.01,weatherlink.com 1.10,2013-12-15 05:42:00,
2013-12-15 00:57:00,35.6,35.0,29.66,NE,51,14.0,29.0,97,0.03,,,0.03,weatherlink.com 1.10,2013-12-15 05:57:00,
2013-12-15 01:12:00,36.1,35.0,29.62,ENE,75,35.0,35.0,97,0.03,,,0.03,weatherlink.com 1.10,2013-12-15 06:12:00,
2013-12-15 01:27:00,37.2,37.0,29.60,NNE,27,13.0,32.0,97,0.03,,,0.03,weatherlink.com 1.10,2013-12-15 06:27:00,
2013-12-15 01:42:00,37.6,37.0,29.57,NE,41,15.0,34.0,98,0.02,,,0.03,weatherlink.com 1.10,2013-12-15 06:42:00,
2013-12-15 01:57:00,37.5,37.0,29.58,NE,55,16.0,30.0,98,0.01,,,0.04,weatherlink.com 1.10,2013-12-15 06:57:00,
2013-12-15 02:12:00,37.2,37.0,29.55,NE,53,17.0,28.0,98,0.07,,,0.10,weatherlink.com 1.10,2013-12-15 07:12:00,
2013-12-15 02:27:00,36.8,36.0,29.55,NE,42,13.0,25.0,97,0.11,,,0.14,weatherlink.com 1.10,2013-12-15 07:27:00,
2013-12-15 02:42:00,36.7,36.0,29.53,NNE,30,31.0,31.0,97,0.12,,,0.15,weatherlink.com 1.10,2013-12-15 07:42:00,
2013-12-15 02:57:00,37.0,37.0,29.52,NNE,18,20.0,32.0,98,0.10,,,0.15,weatherlink.com 1.10,2013-12-15 07:57:00,
2013-12-15 03:12:00,37.0,37.0,29.51,NNE,12,19.0,33.0,98,0.04,,,0.15,weatherlink.com 1.10,2013-12-15 08:12:00,
2013-12-15 03:27:00,37.0,37.0,29.48,NNE,24,21.0,35.0,98,0.01,,,0.15,weatherlink.com 1.10,2013-12-15 08:27:00,
2013-12-15 03:42:00,36.8,36.0,29.47,NNE,14,18.0,28.0,98,0.00,,,0.15,weatherlink.com 1.10,2013-12-15 08:42:00,
2013-12-15 03:57:00,36.4,36.0,29.44,NNE,15,23.0,25.0,97,0.00,,,0.15,weatherlink.com 1.10,2013-12-15 08:57:00,
2013-12-15 04:12:00,36.2,36.0,29.45,NE,49,11.0,28.0,97,0.00,,,0.15,weatherlink.com 1.10,2013-12-15 09:12:00,
2013-12-15 04:27:00,36.0,35.0,29.46,NNE,17,8.0,26.0,97,0.00,,,0.15,weatherlink.com 1.10,2013-12-15 09:27:00,
2013-12-15 04:42:00,35.5,35.0,29.46,NNW,335,12.0,19.0,97,0.00,,,0.15,weatherlink.com 1.10,2013-12-15 09:42:00,
2013-12-15 04:57:00,35.3,35.0,29.47,NNW,341,7.0,15.0,97,0.00,,,0.15,weatherlink.com 1.10,2013-12-15 09:57:00,
2013-12-15 05:12:00,33.2,33.0,29.48,NW,312,7.0,15.0,97,0.00,,,0.15,weatherlink.com 1.10,2013-12-15 10:12:00,
2013-12-15 05:28:00,32.2,32.0,29.48,NW,321,9.0,17.0,97,0.00,,,0.15,weatherlink.com 1.10,2013-12-15 10:28:00,
2013-12-15 05:43:00,31.9,31.0,29.47,NW,306,11.0,14.0,97,0.00,,,0.15,weatherlink.com 1.10,2013-12-15 10:43:00,
2013-12-15 05:58:00,31.7,31.0,29.48,NNW,335,4.0,12.0,97,0.00,,,0.15,weatherlink.com 1.10,2013-12-15 10:58:00,
2013-12-15 06:13:00,31.8,31.0,29.48,NNW,327,6.0,12.0,97,0.00,,,0.15,weatherlink.com 1.10,2013-12-15 11:13:00,
2013-12-15 06:28:00,31.5,31.0,29.48,WNW,302,7.0,8.0,97,0.00,,,0.15,weatherlink.com 1.10,2013-12-15 11:28:00,
2013-12-15 06:43:00,31.2,31.0,29.48,WNW,296,11.0,18.0,97,0.00,,,0.15,weatherlink.com 1.10,2013-12-15 11:43:00,
2013-12-15 06:58:00,30.7,30.0,29.49,NW,308,8.0,11.0,97,0.00,,,0.15,weatherlink.com 1.10,2013-12-15 11:58:00,
2013-12-15 07:13:00,30.2,30.0,29.48,WNW,290,8.0,10.0,97,0.00,,,0.15,weatherlink.com 1.10,2013-12-15 12:13:00,
2013-12-15 07:28:00,30.4,30.0,29.51,WNW,303,10.0,16.0,97,0.00,,,0.15,weatherlink.com 1.10,2013-12-15 12:28:00,
2013-12-15 07:43:00,30.7,30.0,29.51,WNW,302,6.0,13.0,97,0.00,,,0.15,weatherlink.com 1.10,2013-12-15 12:43:00,
2013-12-15 07:58:00,30.9,30.0,29.50,WNW,282,7.0,13.0,97,0.00,,,0.15,weatherlink.com 1.10,2013-12-15 12:58:00,
2013-12-15 08:13:00,30.8,30.0,29.49,NW,321,6.0,13.0,97,0.00,,,0.15,weatherlink.com 1.10,2013-12-15 13:13:00,
2013-12-15 08:28:00,30.9,30.0,29.51,WNW,291,13.0,15.0,97,0.00,,,0.15,weatherlink.com 1.10,2013-12-15 13:28:00,
2013-12-15 08:43:00,31.2,30.0,29.52,WNW,291,6.0,11.0,95,0.00,,,0.15,weatherlink.com 1.10,2013-12-15 13:43:00,
2013-12-15 08:58:00,31.1,29.0,29.52,West,278,5.0,10.0,93,0.00,,,0.15,weatherlink.com 1.10,2013-12-15 13:58:00,
2013-12-15 09:13:00,31.1,29.0,29.52,West,273,7.0,8.0,93,0.00,,,0.15,weatherlink.com 1.10,2013-12-15 14:13:00,
2013-12-15 09:28:00,31.3,30.0,29.52,WNW,287,9.0,11.0,93,0.00,,,0.15,weatherlink.com 1.10,2013-12-15 14:28:00,
2013-12-15 09:43:00,31.4,29.0,29.52,West,271,6.0,11.0,92,0.00,,,0.15,weatherlink.com 1.10,2013-12-15 14:43:00,
2013-12-15 09:58:00,31.6,30.0,29.52,West,279,8.0,11.0,92,0.00,,,0.15,weatherlink.com 1.10,2013-12-15 14:58:00,
2013-12-15 10:13:00,32.0,30.0,29.52,West,276,7.0,11.0,92,0.00,,,0.15,weatherlink.com 1.10,2013-12-15 15:13:00,
2013-12-15 10:28:00,32.3,30.0,29.52,WNW,288,7.0,9.0,92,0.00,,,0.15,weatherlink.com 1.10,2013-12-15 15:28:00,
2013-12-15 10:43:00,32.8,31.0,29.52,West,273,9.0,11.0,91,0.00,,,0.15,weatherlink.com 1.10,2013-12-15 15:43:00,
2013-12-15 10:58:00,33.2,31.0,29.53,WNW,284,11.0,14.0,91,0.00,,,0.15,weatherlink.com 1.10,2013-12-15 15:58:00,
2013-12-15 11:13:00,33.1,31.0,29.53,WSW,258,11.0,15.0,90,0.00,,,0.15,weatherlink.com 1.10,2013-12-15 16:13:00,
2013-12-15 11:28:00,33.7,31.0,29.53,WSW,255,13.0,16.0,90,0.00,,,0.15,weatherlink.com 1.10,2013-12-15 16:28:00,
2013-12-15 11:43:00,34.2,31.0,29.53,WSW,249,14.0,14.0,89,0.00,,,0.15,weatherlink.com 1.10,2013-12-15 16:43:00,
2013-12-15 11:58:00,34.5,31.0,29.53,WSW,255,12.0,21.0,88,0.00,,,0.15,weatherlink.com 1.10,2013-12-15 16:58:00,
2013-12-15 12:13:00,35.1,32.0,29.52,West,260,7.0,14.0,88,0.00,,,0.15,weatherlink.com 1.10,2013-12-15 17:13:00,
2013-12-15 12:28:00,35.6,32.0,29.53,WNW,288,11.0,20.0,87,0.00,,,0.15,weatherlink.com 1.10,2013-12-15 17:28:00,
2013-12-15 12:43:00,35.9,32.0,29.54,West,272,11.0,23.0,85,0.00,,,0.15,weatherlink.com 1.10,2013-12-15 17:43:00,
2013-12-15 12:58:00,36.2,32.0,29.54,West,279,13.0,21.0,85,0.00,,,0.15,weatherlink.com 1.10,2013-12-15 17:58:00,
2013-12-15 13:13:00,36.7,33.0,29.55,West,275,12.0,21.0,85,0.00,,,0.15,weatherlink.com 1.10,2013-12-15 18:13:00,
2013-12-15 13:28:00,37.0,32.0,29.55,WNW,301,15.0,19.0,82,0.00,,,0.15,weatherlink.com 1.10,2013-12-15 18:28:00,
2013-12-15 13:43:00,37.3,33.0,29.56,West,276,8.0,18.0,83,0.00,,,0.15,weatherlink.com 1.10,2013-12-15 18:43:00,
2013-12-15 13:58:00,37.5,33.0,29.56,WNW,296,11.0,16.0,82,0.00,,,0.15,weatherlink.com 1.10,2013-12-15 18:58:00,
2013-12-15 14:13:00,37.6,32.0,29.57,WNW,283,9.0,19.0,81,0.00,,,0.15,weatherlink.com 1.10,2013-12-15 19:13:00,
2013-12-15 14:28:00,38.0,32.0,29.57,WNW,288,7.0,20.0,80,0.00,,,0.15,weatherlink.com 1.10,2013-12-15 19:28:00,
2013-12-15 14:43:00,38.0,31.0,29.59,West,277,10.0,20.0,77,0.00,,,0.15,weatherlink.com 1.10,2013-12-15 19:43:00,
2013-12-15 14:58:00,37.9,31.0,29.61,WNW,282,13.0,18.0,76,0.00,,,0.15,weatherlink.com 1.10,2013-12-15 19:58:00,
2013-12-15 15:13:00,37.6,31.0,29.61,WNW,287,9.0,20.0,78,0.00,,,0.15,weatherlink.com 1.10,2013-12-15 20:13:00,
2013-12-15 15:28:00,37.5,30.0,29.63,WNW,297,23.0,27.0,75,0.00,,,0.15,weatherlink.com 1.10,2013-12-15 20:28:00,
2013-12-15 15:43:00,37.2,30.0,29.64,WNW,288,16.0,25.0,75,0.00,,,0.15,weatherlink.com 1.10,2013-12-15 20:43:00,
2013-12-15 15:58:00,37.2,31.0,29.65,West,264,12.0,15.0,77,0.00,,,0.15,weatherlink.com 1.10,2013-12-15 20:58:00,
2013-12-15 16:13:00,37.2,31.0,29.65,WNW,287,7.0,13.0,79,0.00,,,0.15,weatherlink.com 1.10,2013-12-15 21:13:00,
2013-12-15 16:28:00,37.2,31.0,29.66,West,264,8.0,12.0,77,0.00,,,0.15,weatherlink.com 1.10,2013-12-15 21:28:00,
2013-12-15 16:43:00,37.2,30.0,29.66,West,271,9.0,19.0,76,0.00,,,0.15,weatherlink.com 1.10,2013-12-15 21:43:00,
2013-12-15 16:58:00,37.1,30.0,29.67,West,267,10.0,14.0,76,0.00,,,0.15,weatherlink.com 1.10,2013-12-15 21:58:00,
2013-12-15 17:13:00,37.0,31.0,29.68,West,262,9.0,11.0,79,0.00,,,0.15,weatherlink.com 1.10,2013-12-15 22:13:00,
2013-12-15 17:28:00,37.1,31.0,29.69,WNW,283,8.0,12.0,77,0.00,,,0.15,weatherlink.com 1.10,2013-12-15 22:28:00,
2013-12-15 17:43:00,37.1,30.0,29.69,West,276,6.0,13.0,76,0.00,,,0.15,weatherlink.com 1.10,2013-12-15 22:43:00,
2013-12-15 17:58:00,37.1,30.0,29.69,WNW,296,7.0,15.0,74,0.00,,,0.15,weatherlink.com 1.10,2013-12-15 22:58:00,
2013-12-15 18:13:00,37.1,29.0,29.70,WNW,284,11.0,13.0,73,0.00,,,0.15,weatherlink.com 1.10,2013-12-15 23:13:00,
2013-12-15 18:28:00,37.2,31.0,29.70,West,276,5.0,9.0,79,0.00,,,0.15,weatherlink.com 1.10,2013-12-15 23:28:00,
2013-12-15 18:43:00,37.2,31.0,29.71,WNW,286,4.0,6.0,79,0.00,,,0.15,weatherlink.com 1.10,2013-12-15 23:43:00,
2013-12-15 18:58:00,37.3,32.0,29.72,WSW,243,4.0,7.0,80,0.00,,,0.15,weatherlink.com 1.10,2013-12-15 23:58:00,
2013-12-15 19:13:00,37.2,32.0,29.72,West,275,7.0,8.0,82,0.00,,,0.15,weatherlink.com 1.10,2013-12-16 00:13:00,
2013-12-15 19:28:00,37.3,32.0,29.72,West,259,5.0,5.0,81,0.00,,,0.15,weatherlink.com 1.10,2013-12-16 00:28:00,
2013-12-15 19:43:00,37.2,31.0,29.73,West,268,10.0,18.0,78,0.00,,,0.15,weatherlink.com 1.10,2013-12-16 00:43:00,
2013-12-15 19:58:00,37.1,30.0,29.73,WSW,257,13.0,19.0,75,0.00,,,0.15,weatherlink.com 1.10,2013-12-16 00:58:00,
2013-12-15 20:13:00,36.6,29.0,29.74,WSW,258,14.0,24.0,74,0.00,,,0.15,weatherlink.com 1.10,2013-12-16 01:13:00,
2013-12-15 20:28:00,36.3,27.0,29.74,West,262,14.0,28.0,70,0.00,,,0.15,weatherlink.com 1.10,2013-12-16 01:28:00,
2013-12-15 20:43:00,35.9,27.0,29.75,WSW,255,17.0,25.0,70,0.00,,,0.15,weatherlink.com 1.10,2013-12-16 01:43:00,
2013-12-15 20:58:00,35.6,28.0,29.75,WSW,250,11.0,19.0,73,0.00,,,0.15,weatherlink.com 1.10,2013-12-16 01:58:00,
2013-12-15 21:13:00,35.4,27.0,29.76,West,260,13.0,21.0,70,0.00,,,0.15,weatherlink.com 1.10,2013-12-16 02:13:00,
2013-12-15 21:28:00,35.0,24.0,29.77,West,261,19.0,25.0,65,0.00,,,0.15,weatherlink.com 1.10,2013-12-16 02:28:00,
2013-12-15 21:43:00,34.8,26.0,29.77,WSW,257,20.0,25.0,69,0.00,,,0.15,weatherlink.com 1.10,2013-12-16 02:43:00,
2013-12-15 21:58:00,34.8,26.0,29.77,WSW,238,18.0,18.0,69,0.00,,,0.15,weatherlink.com 1.10,2013-12-16 02:58:00,
2013-12-15 22:14:00,34.6,24.0,29.78,WSW,251,18.0,28.0,66,0.00,,,0.15,weatherlink.com 1.10,2013-12-16 03:14:00,
2013-12-15 22:29:00,34.4,23.0,29.77,WSW,245,13.0,19.0,64,0.00,,,0.15,weatherlink.com 1.10,2013-12-16 03:29:00,
2013-12-15 22:44:00,34.3,24.0,29.78,WSW,242,18.0,24.0,66,0.00,,,0.15,weatherlink.com 1.10,2013-12-16 03:44:00,
2013-12-15 22:59:00,34.1,23.0,29.79,WSW,244,15.0,19.0,65,0.00,,,0.15,weatherlink.com 1.10,2013-12-16 03:59:00,
2013-12-15 23:14:00,34.1,23.0,29.79,SW,227,14.0,22.0,65,0.00,,,0.15,weatherlink.com 1.10,2013-12-16 04:14:00,
2013-12-15 23:29:00,34.0,25.0,29.79,SW,235,13.0,23.0,69,0.00,,,0.15,weatherlink.com 1.10,2013-12-16 04:29:00,
2013-12-15 23:44:00,34.0,24.0,29.79,SW,227,20.0,23.0,66,0.00,,,0.15,weatherlink.com 1.10,2013-12-16 04:44:00,
2013-12-15 23:59:00,34.1,25.0,29.78,WSW,238,15.0,25.0,69,0.00,,,0.15,weatherlink.com 1.10,2013-12-16 04:59:00,